createdAt,value
2023-02-11T00:02:13.713Z,32.28
2023-02-11T00:04:40.344Z,32.67
2023-02-11T00:07:07.073Z,35.03
2023-02-11T00:09:33.752Z,32.90
2023-02-11T00:12:00.375Z,34.88
2023-02-11T00:14:27.341Z,35.42
2023-02-11T00:16:54.010Z,33.08
2023-02-11T00:19:20.642Z,31.75
2023-02-11T00:21:47.277Z,32.90
2023-02-11T00:24:13.892Z,32.65
2023-02-11T00:26:40.532Z,35.90
2023-02-11T00:29:07.190Z,35.08
2023-02-11T00:31:34.136Z,35.83
2023-02-11T00:34:02.209Z,35.53
2023-02-11T00:36:29.108Z,34.38
2023-02-11T00:38:56.682Z,36.70
2023-02-11T00:41:23.542Z,35.70
2023-02-11T00:43:50.552Z,36.85
2023-02-11T00:46:17.292Z,35.45
2023-02-11T00:48:44.040Z,33.97
2023-02-11T00:51:11.275Z,33.97
2023-02-11T00:53:37.937Z,35.15
2023-02-11T00:56:04.971Z,35.13
2023-02-11T00:58:31.653Z,35.28
2023-02-11T01:00:58.344Z,34.35
2023-02-11T01:03:25.130Z,35.60
2023-02-11T01:05:52.203Z,34.70
2023-02-11T01:08:19.243Z,34.92
2023-02-11T01:10:45.928Z,36.33
2023-02-11T01:13:12.602Z,33.97
2023-02-11T01:15:39.310Z,33.60
2023-02-11T01:18:06.012Z,36.70
2023-02-11T01:20:32.713Z,35.90
2023-02-11T01:22:59.364Z,34.75
2023-02-11T01:25:26.215Z,35.30
2023-02-11T01:27:53.103Z,34.30
2023-02-11T01:30:19.773Z,37.03
2023-02-11T01:32:46.653Z,37.15
2023-02-11T01:35:13.309Z,36.45
2023-02-11T01:37:39.965Z,37.58
2023-02-11T01:40:10.753Z,35.90
2023-02-11T01:42:37.430Z,36.83
2023-02-11T01:45:42.088Z,36.58
2023-02-11T01:48:09.449Z,36.03
2023-02-11T01:50:36.297Z,37.13
2023-02-11T01:53:22.973Z,37.45
2023-02-11T01:56:08.523Z,37.90
2023-02-11T01:58:35.168Z,38.05
2023-02-11T02:01:03.033Z,37.13
2023-02-11T02:03:29.690Z,37.85
2023-02-11T02:06:03.179Z,37.15
2023-02-11T02:08:39.683Z,36.58
2023-02-11T02:11:06.316Z,36.67
2023-02-11T02:13:34.072Z,38.40
2023-02-11T02:16:06.689Z,38.40
2023-02-11T02:18:56.667Z,39.20
2023-02-11T02:21:56.672Z,37.70
2023-02-11T02:24:28.320Z,38.45
2023-02-11T02:27:13.011Z,37.55
2023-02-11T02:30:03.271Z,37.03
2023-02-11T02:32:40.231Z,38.00
2023-02-11T02:35:34.659Z,34.75
2023-02-11T02:38:54.029Z,37.47
2023-02-11T02:41:31.724Z,37.28
2023-02-11T02:43:58.350Z,38.35
2023-02-11T02:46:27.209Z,40.03
2023-02-11T02:48:54.107Z,37.83
2023-02-11T02:51:44.229Z,38.45
2023-02-11T02:54:43.356Z,37.22
2023-02-11T02:57:15.931Z,38.05
2023-02-11T02:59:57.968Z,37.80
2023-02-11T03:02:58.446Z,38.35
2023-02-11T03:05:35.013Z,39.80
2023-02-11T03:08:09.189Z,38.28
2023-02-11T03:13:07.281Z,37.83
2023-02-11T03:15:37.824Z,37.53
2023-02-11T03:18:04.604Z,37.42
2023-02-11T03:20:31.439Z,40.40
2023-02-11T03:23:19.081Z,37.78
2023-02-11T03:25:56.098Z,38.15
2023-02-11T03:28:25.601Z,38.78
2023-02-11T03:31:13.783Z,40.50
2023-02-11T03:34:04.155Z,37.97
2023-02-11T03:36:39.244Z,38.55
2023-02-11T03:39:06.149Z,37.58
2023-02-11T03:41:32.768Z,38.40
2023-02-11T03:43:59.414Z,38.58
2023-02-11T03:46:33.885Z,39.25
2023-02-11T03:49:06.608Z,38.03
2023-02-11T03:51:33.330Z,37.65
2023-02-11T03:54:01.584Z,36.97
2023-02-11T03:56:30.353Z,38.53
2023-02-11T03:58:57.391Z,38.72
2023-02-11T04:01:24.084Z,38.13
2023-02-11T04:03:50.807Z,36.67
2023-02-11T04:06:17.460Z,38.05
2023-02-11T04:08:44.089Z,39.40
2023-02-11T04:11:10.709Z,37.75
2023-02-11T04:13:37.337Z,37.85
2023-02-11T04:16:04.057Z,39.45
2023-02-11T04:18:30.712Z,37.95
2023-02-11T04:20:57.329Z,37.45
2023-02-11T04:23:23.954Z,37.92
2023-02-11T04:25:50.945Z,37.13
2023-02-11T04:28:17.862Z,37.85
2023-02-11T04:30:44.531Z,37.92
2023-02-11T04:33:11.228Z,38.40
2023-02-11T04:35:37.884Z,36.05
2023-02-11T04:38:04.544Z,37.63
2023-02-11T04:40:31.141Z,35.58
2023-02-11T04:42:57.741Z,35.63
2023-02-11T04:45:24.387Z,37.40
2023-02-11T04:47:51.092Z,37.05
2023-02-11T04:50:17.718Z,37.50
2023-02-11T04:52:44.349Z,35.38
2023-02-11T04:55:10.942Z,36.65
2023-02-11T04:57:37.570Z,35.78
2023-02-11T05:00:04.770Z,36.13
2023-02-11T05:02:31.406Z,38.30
2023-02-11T05:04:58.053Z,35.78
2023-02-11T05:07:24.897Z,36.65
2023-02-11T05:09:51.507Z,36.97
2023-02-11T05:12:18.196Z,37.25
2023-02-11T05:14:44.831Z,37.00
2023-02-11T05:17:11.464Z,37.47
2023-02-11T05:19:38.092Z,36.67
2023-02-11T05:22:04.705Z,36.55
2023-02-11T05:24:32.348Z,34.63
2023-02-11T05:26:59.076Z,37.25
2023-02-11T05:29:25.708Z,38.10
2023-02-11T05:31:52.524Z,35.55
2023-02-11T05:34:19.173Z,37.67
2023-02-11T05:36:45.791Z,36.42
2023-02-11T05:39:12.419Z,35.97
2023-02-11T05:41:39.057Z,35.28
2023-02-11T05:44:05.689Z,37.03
2023-02-11T05:46:32.351Z,35.72
2023-02-11T05:48:59.016Z,37.83
2023-02-11T05:51:25.681Z,36.92
2023-02-11T05:53:52.596Z,36.67
2023-02-11T05:56:19.228Z,36.42
2023-02-11T05:58:45.952Z,37.70
2023-02-11T06:01:13.579Z,36.40
2023-02-11T06:03:40.285Z,37.60
2023-02-11T06:06:11.457Z,37.00
2023-02-11T06:08:39.453Z,38.40
2023-02-11T06:11:06.159Z,37.00
2023-02-11T06:13:32.815Z,35.53
2023-02-11T06:16:00.397Z,35.03
2023-02-11T06:18:27.047Z,35.60
2023-02-11T06:20:53.746Z,35.60
2023-02-11T06:23:20.714Z,35.15
2023-02-11T06:25:47.327Z,35.97
2023-02-11T06:28:13.990Z,36.05
2023-02-11T06:30:40.807Z,35.45
2023-02-11T06:33:08.836Z,35.95
2023-02-11T06:35:36.588Z,36.92
2023-02-11T06:38:03.224Z,35.92
2023-02-11T06:40:29.838Z,37.13
2023-02-11T06:42:56.698Z,37.35
2023-02-11T06:45:23.360Z,36.58
2023-02-11T06:47:51.515Z,36.55
2023-02-11T06:50:18.434Z,36.08
2023-02-11T06:52:45.320Z,35.38
2023-02-11T06:55:12.229Z,35.85
2023-02-11T06:57:39.108Z,35.90
2023-02-11T07:00:06.438Z,36.78
2023-02-11T07:02:33.350Z,36.20
2023-02-11T07:05:00.321Z,35.60
2023-02-11T07:07:27.591Z,36.78
2023-02-11T07:09:54.479Z,36.13
2023-02-11T07:12:21.148Z,38.22
2023-02-11T07:14:47.786Z,35.55
2023-02-11T07:17:14.568Z,37.55
2023-02-11T07:19:41.305Z,35.35
2023-02-11T07:22:08.301Z,38.50
2023-02-11T07:24:35.238Z,38.47
2023-02-11T07:27:01.914Z,36.50
2023-02-11T07:29:28.598Z,36.78
2023-02-11T07:31:55.311Z,35.75
2023-02-11T07:34:22.149Z,35.92
2023-02-11T07:36:49.056Z,36.83
2023-02-11T07:39:15.763Z,34.95
2023-02-11T07:41:43.691Z,37.60
2023-02-11T07:44:10.336Z,34.60
2023-02-11T07:46:45.573Z,36.90
2023-02-11T07:49:12.584Z,34.45
2023-02-11T07:51:39.389Z,36.35
2023-02-11T07:54:06.039Z,36.28
2023-02-11T07:56:33.445Z,34.30
2023-02-11T07:59:04.065Z,34.97
2023-02-11T08:01:30.884Z,35.70
2023-02-11T08:04:01.280Z,35.15
2023-02-11T08:06:30.092Z,36.50
2023-02-11T08:08:57.036Z,37.60
2023-02-11T08:11:25.211Z,35.67
2023-02-11T08:13:52.145Z,36.58
2023-02-11T08:16:20.854Z,36.72
2023-02-11T08:18:47.711Z,36.60
2023-02-11T08:21:14.597Z,34.88
2023-02-11T08:23:41.763Z,34.17
2023-02-11T08:26:10.319Z,35.88
2023-02-11T08:28:37.977Z,34.15
2023-02-11T08:31:09.120Z,35.20
2023-02-11T08:33:35.858Z,36.35
2023-02-11T08:36:07.446Z,35.97
2023-02-11T08:38:34.112Z,36.33
2023-02-11T08:41:01.021Z,36.63
2023-02-11T08:43:27.690Z,35.72
2023-02-11T08:45:54.420Z,34.75
2023-02-11T08:48:21.536Z,37.40
2023-02-11T08:50:48.457Z,35.13
2023-02-11T08:53:15.340Z,35.72
2023-02-11T08:55:49.124Z,36.33
2023-02-11T08:58:18.781Z,35.92
2023-02-11T09:00:46.144Z,34.10
2023-02-11T09:03:13.509Z,36.38
2023-02-11T09:05:44.866Z,34.83
2023-02-11T09:08:11.711Z,35.25
2023-02-11T09:10:38.495Z,36.40
2023-02-11T09:13:05.421Z,36.80
2023-02-11T09:15:43.273Z,34.72
2023-02-11T09:18:18.589Z,34.88
2023-02-11T09:20:45.213Z,35.60
2023-02-11T09:23:12.471Z,35.80
2023-02-11T09:25:40.798Z,37.13
2023-02-11T09:28:08.233Z,35.38
2023-02-11T09:30:36.650Z,36.40
2023-02-11T09:33:03.540Z,34.65
2023-02-11T09:35:30.306Z,36.67
2023-02-11T09:37:56.921Z,35.03
2023-02-11T09:40:23.560Z,34.47
2023-02-11T09:43:11.653Z,36.72
2023-02-11T09:45:38.342Z,35.17
2023-02-11T09:48:10.660Z,33.38
2023-02-11T09:50:40.039Z,34.53
2023-02-11T09:53:25.856Z,33.42
2023-02-11T09:55:56.672Z,34.92
2023-02-11T09:58:28.929Z,35.22
2023-02-11T10:01:02.309Z,33.10
2023-02-11T10:03:59.764Z,33.97
2023-02-11T10:06:33.540Z,34.28
2023-02-11T10:09:21.560Z,32.97
2023-02-11T10:12:19.013Z,33.65
2023-02-11T10:14:58.406Z,33.50
2023-02-11T10:17:30.957Z,32.78
2023-02-11T10:20:08.269Z,34.30
2023-02-11T10:22:41.324Z,32.67
2023-02-11T10:25:17.757Z,33.13
2023-02-11T10:27:44.538Z,34.25
2023-02-11T10:30:34.055Z,32.92
2023-02-11T10:33:13.193Z,33.40
2023-02-11T10:35:40.259Z,33.75
2023-02-11T10:38:08.555Z,36.05
2023-02-11T10:40:35.207Z,35.28
2023-02-11T10:43:04.762Z,33.75
2023-02-11T10:45:36.049Z,36.13
2023-02-11T10:48:07.105Z,33.75
2023-02-11T10:50:34.974Z,32.95
2023-02-11T10:53:20.551Z,34.35
2023-02-11T10:55:57.233Z,32.45
2023-02-11T10:58:27.350Z,33.78
2023-02-11T11:00:55.519Z,35.97
2023-02-11T11:03:24.096Z,34.75
2023-02-11T11:06:00.898Z,34.50
2023-02-11T11:08:47.981Z,35.22
2023-02-11T11:11:16.477Z,35.28
2023-02-11T11:13:55.797Z,34.33
2023-02-11T11:16:29.304Z,35.35
2023-02-11T11:19:08.221Z,35.83
2023-02-11T11:21:45.938Z,34.72
2023-02-11T11:24:40.302Z,33.78
2023-02-11T11:27:06.958Z,34.08
2023-02-11T11:29:38.950Z,34.40
2023-02-11T11:32:13.150Z,34.25
2023-02-11T11:37:34.798Z,32.47
2023-02-11T11:40:13.584Z,35.72
2023-02-11T11:42:40.617Z,34.47
2023-02-11T11:45:34.029Z,35.03
2023-02-11T11:48:19.503Z,33.97
2023-02-11T11:50:57.261Z,32.47
2023-02-11T11:53:31.380Z,35.17
2023-02-11T11:56:03.984Z,36.33
2023-02-11T11:58:31.171Z,33.40
2023-02-11T12:01:15.855Z,33.80
2023-02-11T12:04:06.309Z,36.42
2023-02-11T12:06:59.993Z,34.78
2023-02-11T12:09:45.624Z,32.15
2023-02-11T12:12:32.710Z,33.40
2023-02-11T12:15:08.173Z,33.15
2023-02-11T12:17:57.252Z,34.42
2023-02-11T12:20:32.850Z,33.55
2023-02-11T12:23:15.524Z,34.75
2023-02-11T12:25:53.956Z,35.35
2023-02-11T12:28:37.493Z,35.33
2023-02-11T12:31:23.516Z,35.88
2023-02-11T12:33:50.141Z,33.65
2023-02-11T12:36:54.373Z,36.88
2023-02-11T12:39:35.438Z,33.45
2023-02-11T12:42:52.849Z,36.22
2023-02-11T12:45:27.325Z,34.63
2023-02-11T12:48:16.991Z,33.20
2023-02-11T12:51:04.667Z,35.53
2023-02-11T12:53:59.072Z,33.88
2023-02-11T12:56:50.142Z,34.35
2023-02-11T12:59:38.628Z,32.95
2023-02-11T13:02:12.482Z,34.60
2023-02-11T13:04:40.278Z,34.17
2023-02-11T13:07:13.921Z,34.05
2023-02-11T13:09:51.496Z,32.55
2023-02-11T13:12:36.624Z,34.72
2023-02-11T13:15:06.375Z,34.88
2023-02-11T13:17:38.585Z,34.28
2023-02-11T13:20:18.504Z,33.55
2023-02-11T13:22:50.597Z,34.58
2023-02-11T13:25:29.435Z,34.88
2023-02-11T13:28:04.426Z,34.05
2023-02-11T13:30:34.524Z,34.72
2023-02-11T13:33:01.155Z,34.88
2023-02-11T13:35:38.571Z,33.45
2023-02-11T13:38:18.471Z,36.05
2023-02-11T13:40:48.254Z,35.03
2023-02-11T13:43:23.085Z,38.50
2023-02-11T13:45:50.366Z,36.22
2023-02-11T13:48:27.354Z,36.20
2023-02-11T13:50:56.148Z,36.65
2023-02-11T13:53:22.746Z,39.83
2023-02-11T13:55:51.284Z,37.38
2023-02-11T13:58:27.930Z,34.17
2023-02-11T14:00:55.022Z,35.45
2023-02-11T14:03:42.707Z,34.85
2023-02-11T14:06:28.126Z,33.90
2023-02-11T14:09:10.277Z,32.88
2023-02-11T14:11:55.295Z,32.83
2023-02-11T14:14:31.651Z,31.88
2023-02-11T14:16:58.599Z,31.48
2023-02-11T14:19:38.532Z,33.03
2023-02-11T14:22:06.321Z,33.92
2023-02-11T14:24:32.917Z,33.75
2023-02-11T14:27:05.580Z,34.15
2023-02-11T14:29:53.777Z,33.38
2023-02-11T14:32:20.408Z,33.03
2023-02-11T14:35:10.396Z,33.28
2023-02-11T14:37:50.312Z,35.30
2023-02-11T14:40:27.869Z,33.72
2023-02-11T14:42:54.735Z,32.72
2023-02-11T14:45:27.417Z,30.98
2023-02-11T14:48:05.844Z,33.63
2023-02-11T14:50:53.636Z,29.73
2023-02-11T14:53:22.835Z,31.35
2023-02-11T14:55:52.401Z,31.98
2023-02-11T14:58:25.865Z,30.63
2023-02-11T15:00:57.739Z,30.83
2023-02-11T15:03:38.888Z,31.40
2023-02-11T15:06:16.621Z,30.17
2023-02-11T15:08:46.081Z,31.17
2023-02-11T15:11:13.801Z,31.27
2023-02-11T15:13:47.540Z,30.92
2023-02-11T15:16:24.545Z,31.85
2023-02-11T15:19:01.165Z,29.73
2023-02-11T15:21:32.389Z,29.80
2023-02-11T15:24:06.002Z,30.92
2023-02-11T15:26:32.780Z,31.75
2023-02-11T15:29:14.941Z,31.02
2023-02-11T15:31:41.777Z,31.85
2023-02-11T15:34:09.263Z,29.90
2023-02-11T15:36:36.417Z,31.85
2023-02-11T15:39:18.983Z,29.90
2023-02-11T15:41:45.636Z,30.77
2023-02-11T15:44:28.907Z,31.45
2023-02-11T15:46:55.560Z,30.70
2023-02-11T15:49:23.448Z,30.95
2023-02-11T15:51:51.260Z,29.85
2023-02-11T15:54:22.654Z,32.50
2023-02-11T15:56:52.523Z,31.23
2023-02-11T15:59:30.649Z,32.25
2023-02-11T16:01:58.564Z,30.33
2023-02-11T16:04:26.380Z,33.33
2023-02-11T16:06:54.346Z,34.42
2023-02-11T16:09:27.509Z,31.13
2023-02-11T16:11:56.464Z,31.95
2023-02-11T16:14:32.848Z,31.73
2023-02-11T16:17:05.587Z,33.00
2023-02-11T16:19:32.964Z,33.40
2023-02-11T16:22:01.027Z,32.78
2023-02-11T16:24:29.739Z,31.08
2023-02-11T16:27:00.642Z,33.08
2023-02-11T16:29:29.707Z,37.55
2023-02-11T16:32:15.928Z,34.70
2023-02-11T16:34:42.594Z,35.90
2023-02-11T16:37:09.528Z,36.55
2023-02-11T16:39:36.386Z,36.80
2023-02-11T16:42:05.230Z,36.85
2023-02-11T16:44:34.057Z,34.53
2023-02-11T16:47:01.358Z,33.67
2023-02-11T16:49:30.031Z,32.65
2023-02-11T16:52:04.131Z,31.33
2023-02-11T16:54:31.428Z,28.67
2023-02-11T16:56:58.160Z,26.02
2023-02-11T16:59:24.921Z,24.75
2023-02-11T17:01:52.288Z,29.05
2023-02-11T17:04:26.619Z,27.00
2023-02-11T17:06:53.991Z,26.88
2023-02-11T17:09:28.350Z,28.27
2023-02-11T17:11:56.446Z,30.90
2023-02-11T17:14:23.076Z,28.98
2023-02-11T17:16:49.837Z,27.42
2023-02-11T17:19:20.752Z,44.67
2023-02-11T17:21:48.940Z,30.33
2023-02-11T17:24:15.664Z,29.88
2023-02-11T17:26:42.826Z,26.02
2023-02-11T17:29:11.166Z,28.65
2023-02-11T17:31:38.874Z,29.15
2023-02-11T17:34:05.605Z,28.92
2023-02-11T17:36:33.262Z,25.25
2023-02-11T17:39:00.743Z,23.88
2023-02-11T17:41:27.659Z,26.63
2023-02-11T17:43:54.358Z,23.92
2023-02-11T17:46:21.013Z,25.60
2023-02-11T17:48:47.688Z,31.83
2023-02-11T17:51:24.003Z,36.05
2023-02-11T17:53:51.227Z,26.73
2023-02-11T17:56:17.912Z,22.65
2023-02-11T17:58:44.847Z,23.85
2023-02-11T18:01:11.466Z,21.25
2023-02-11T18:03:38.117Z,21.63
2023-02-11T18:06:06.885Z,21.30
2023-02-11T18:08:34.690Z,22.70
2023-02-11T18:11:01.411Z,25.63
2023-02-11T18:13:28.459Z,21.98
2023-02-11T18:15:55.735Z,23.00
2023-02-11T18:18:22.416Z,23.15
2023-02-11T18:20:59.189Z,24.23
2023-02-11T18:23:25.874Z,22.90
2023-02-11T18:25:52.766Z,24.42
2023-02-11T18:28:20.127Z,24.10
2023-02-11T18:30:46.819Z,24.20
2023-02-11T18:33:14.517Z,25.17
2023-02-11T18:35:42.046Z,24.83
2023-02-11T18:38:09.171Z,25.75
2023-02-11T18:40:39.836Z,24.75
2023-02-11T18:43:07.329Z,27.33
2023-02-11T18:45:34.156Z,24.67
2023-02-11T18:48:09.316Z,25.30
2023-02-11T18:50:35.993Z,25.80
2023-02-11T18:53:05.658Z,27.63
2023-02-11T18:55:34.225Z,26.85
2023-02-11T18:58:01.570Z,26.77
2023-02-11T19:00:28.316Z,24.17
2023-02-11T19:02:57.543Z,24.95
2023-02-11T19:05:28.548Z,26.17
2023-02-11T19:07:56.484Z,26.65
2023-02-11T19:10:23.946Z,26.75
2023-02-11T19:12:53.554Z,28.83
2023-02-11T19:15:20.467Z,31.83
2023-02-11T19:17:47.082Z,33.40
2023-02-11T19:20:13.699Z,33.22
2023-02-11T19:22:40.394Z,32.80
2023-02-11T19:25:07.246Z,32.22
2023-02-11T19:27:36.604Z,32.90
2023-02-11T19:30:04.108Z,33.08
2023-02-11T19:32:31.258Z,32.20
2023-02-11T19:35:00.368Z,32.65
2023-02-11T19:37:27.005Z,32.17
2023-02-11T19:39:53.643Z,31.25
2023-02-11T19:42:25.836Z,29.58
2023-02-11T19:44:53.796Z,29.65
2023-02-11T19:47:26.668Z,32.08
2023-02-11T19:49:53.795Z,30.83
2023-02-11T19:52:20.479Z,32.20
2023-02-11T19:54:47.131Z,31.20
2023-02-11T19:57:13.745Z,31.95
2023-02-11T19:59:43.402Z,30.67
2023-02-11T20:02:11.543Z,30.58
2023-02-11T20:04:38.203Z,31.13
2023-02-11T20:07:04.902Z,36.05
2023-02-11T20:09:31.790Z,34.00
2023-02-11T20:11:58.947Z,33.45
2023-02-11T20:14:27.870Z,34.17
2023-02-11T20:16:57.372Z,32.65
2023-02-11T20:19:24.071Z,33.05
2023-02-11T20:21:53.432Z,31.35
2023-02-11T20:24:23.590Z,31.98
2023-02-11T20:26:55.544Z,31.08
2023-02-11T20:29:22.738Z,31.48
2023-02-11T20:31:51.074Z,32.75
2023-02-11T20:34:18.394Z,34.35
2023-02-11T20:36:51.389Z,31.05
2023-02-11T20:39:18.572Z,31.92
2023-02-11T20:41:46.032Z,33.97
2023-02-11T20:44:12.878Z,30.23
2023-02-11T20:46:41.292Z,30.10
2023-02-11T20:49:09.658Z,30.17
2023-02-11T20:51:37.208Z,29.70
2023-02-11T20:54:04.083Z,27.85
2023-02-11T20:56:34.392Z,28.77
2023-02-11T20:59:02.287Z,29.17
2023-02-11T21:01:32.880Z,30.55
2023-02-11T21:04:04.711Z,30.63
2023-02-11T21:06:36.505Z,30.23
2023-02-11T21:09:04.665Z,29.40
2023-02-11T21:11:31.308Z,29.05
2023-02-11T21:13:58.246Z,29.13
2023-02-11T21:16:24.995Z,30.65
2023-02-11T21:18:52.173Z,31.50
2023-02-11T21:21:19.688Z,41.08
2023-02-11T21:23:46.688Z,48.47
2023-02-11T21:26:13.824Z,53.08
2023-02-11T21:28:41.246Z,56.75
2023-02-11T21:31:08.021Z,51.03
2023-02-11T21:33:35.040Z,37.05
2023-02-11T21:36:02.622Z,35.17
2023-02-11T21:38:29.504Z,38.88
2023-02-11T21:40:56.472Z,38.30
2023-02-11T21:43:23.364Z,37.97
2023-02-11T21:45:50.637Z,34.40
2023-02-11T21:48:17.421Z,35.50
2023-02-11T21:50:45.424Z,36.53
2023-02-11T21:53:12.469Z,35.70
2023-02-11T21:55:39.365Z,35.80
2023-02-11T21:58:06.220Z,34.50
2023-02-11T22:00:33.077Z,35.22
2023-02-11T22:02:59.683Z,33.83
2023-02-11T22:05:26.331Z,33.50
2023-02-11T22:07:52.947Z,33.72
2023-02-11T22:10:19.680Z,31.90
2023-02-11T22:12:46.316Z,40.03
2023-02-11T22:15:13.134Z,38.22
2023-02-11T22:17:39.803Z,33.20
2023-02-11T22:20:07.155Z,36.28
2023-02-11T22:22:33.781Z,37.15
2023-02-11T22:25:01.892Z,32.47
2023-02-11T22:27:28.508Z,35.63
2023-02-11T22:29:55.125Z,34.42
2023-02-11T22:32:21.764Z,33.72
2023-02-11T22:34:48.376Z,32.45
2023-02-11T22:37:15.040Z,32.03
2023-02-11T22:39:42.666Z,32.28
2023-02-11T22:42:09.340Z,33.42
2023-02-11T22:44:37.058Z,33.70
2023-02-11T22:47:03.744Z,34.03
2023-02-11T22:49:32.434Z,35.00
2023-02-11T22:51:59.635Z,32.70
2023-02-11T22:54:26.521Z,35.15
2023-02-11T22:56:53.561Z,36.80
2023-02-11T22:59:20.769Z,34.75
2023-02-11T23:01:47.529Z,37.70
2023-02-11T23:04:16.116Z,35.17
2023-02-11T23:06:43.145Z,35.20
2023-02-11T23:09:10.595Z,33.55
2023-02-11T23:11:37.240Z,34.03
2023-02-11T23:14:04.173Z,34.13
2023-02-11T23:16:32.363Z,33.47
2023-02-11T23:18:59.784Z,32.92
2023-02-11T23:21:28.445Z,34.03
2023-02-11T23:23:56.376Z,33.92
2023-02-11T23:26:23.286Z,34.45
2023-02-11T23:28:49.918Z,35.42
2023-02-11T23:31:23.620Z,34.95
2023-02-11T23:33:50.392Z,35.88
2023-02-11T23:36:17.425Z,35.70
2023-02-11T23:38:44.125Z,36.15
2023-02-11T23:41:10.814Z,36.53
2023-02-11T23:43:37.528Z,37.75
2023-02-11T23:46:04.637Z,36.45
2023-02-11T23:48:31.543Z,37.72
2023-02-11T23:50:58.179Z,38.33
2023-02-11T23:53:24.861Z,38.83
2023-02-11T23:55:51.492Z,37.45
2023-02-11T23:58:18.103Z,36.53
